Tarko-Sale, Russia
Current Conditions -  °F | °C
As of 5:30 PM on Thursday 23 Oct 2014 (Local Time) from USNN Reporting Station
Clear Clear  
Wind Chill: -7°   Ceiling: Unl
Heat Index:   Visibility: 6mi
Dew Point:   Wind: 7mph
Humidity: 85%   Direction: 40°NE
Pressure: 29.97"   Gusts: NA
Location:  64.92°N, 77.79°E
Report Text: USNN 231230Z 04003MPS CAVOK M15/M17 Q1015 NOSIG RMK QFE75803410163
Loading
Personal Weather Stations






























Interactive Weather Map
Tropical Storm Tracking
New forecast layout! Learn more

10-Day Weather Forecast

Advertisements
Track Severe Weather on mobile